createdAt,value
2023-03-19T00:53:13.700Z,20.10
2023-03-19T00:56:44.802Z,20.50
2023-03-19T01:00:21.689Z,17.40
2023-03-19T01:16:14.876Z,14.40
2023-03-19T01:20:41.503Z,12.40
2023-03-19T01:24:12.919Z,15.20
2023-03-19T02:41:54.604Z,14.60
2023-03-19T02:57:58.105Z,15.20
2023-03-19T03:01:52.349Z,17.30
2023-03-19T03:05:11.398Z,20.20
2023-03-19T03:13:31.839Z,18.90
2023-03-19T03:28:18.934Z,27.30
2023-03-19T03:31:48.220Z,22.50
2023-03-19T03:40:25.709Z,22.10
2023-03-19T03:44:14.720Z,23.30
2023-03-19T03:47:42.677Z,25.80
2023-03-19T03:50:57.829Z,21.50
2023-03-19T03:58:13.777Z,21.70
2023-03-19T04:05:22.763Z,27.20
2023-03-19T04:18:10.648Z,26.20
2023-03-19T04:26:44.953Z,24.70
2023-03-19T04:38:26.717Z,22.50
2023-03-19T04:46:35.707Z,23.40
2023-03-19T04:49:43.116Z,23.40
2023-03-19T04:52:54.006Z,24.50
2023-03-19T05:01:30.604Z,24.70
2023-03-19T05:18:56.612Z,26.60
2023-03-19T05:26:16.945Z,27.00
2023-03-19T08:29:36.724Z,7.50
2023-03-19T08:32:46.331Z,8.50
2023-03-19T08:35:57.737Z,8.50
2023-03-19T08:39:02.967Z,8.40
2023-03-19T08:42:13.589Z,7.60
2023-03-19T08:45:32.041Z,6.90
2023-03-19T08:48:35.445Z,7.00
2023-03-19T12:27:35.902Z,4.70
2023-03-19T12:31:23.432Z,5.70
2023-03-19T12:34:51.398Z,5.10
2023-03-19T12:42:08.975Z,5.50
2023-03-19T12:46:03.455Z,5.20
2023-03-19T13:29:06.758Z,4.80
2023-03-19T13:32:50.909Z,5.20
2023-03-19T13:35:55.726Z,5.50
2023-03-19T13:39:13.046Z,4.70
2023-03-19T13:42:42.317Z,5.60
2023-03-19T13:45:45.628Z,5.30
2023-03-19T13:48:54.139Z,4.90
2023-03-19T13:52:39.093Z,4.80
2023-03-19T13:55:54.823Z,5.20
2023-03-19T13:59:33.415Z,5.20
2023-03-19T14:05:24.179Z,5.30
2023-03-19T14:08:53.743Z,5.60
2023-03-19T14:12:18.069Z,5.80
2023-03-19T14:15:24.062Z,5.70
2023-03-19T14:18:38.357Z,5.80
2023-03-19T14:22:09.368Z,5.90
2023-03-19T14:25:30.269Z,5.40
2023-03-19T14:28:44.880Z,5.50
2023-03-19T14:31:54.268Z,5.50
2023-03-19T14:35:07.804Z,5.30
2023-03-19T14:41:40.766Z,4.80
2023-03-19T14:45:21.407Z,5.10
2023-03-19T14:49:06.831Z,5.30
2023-03-19T14:53:07.482Z,6.10
2023-03-19T14:56:25.756Z,6.60
2023-03-19T14:59:37.933Z,6.20
2023-03-19T15:03:20.346Z,5.50
2023-03-19T15:07:02.360Z,6.70
2023-03-19T15:20:44.110Z,6.80
2023-03-19T15:24:30.831Z,6.30
2023-03-19T15:28:34.527Z,5.80
2023-03-19T15:37:37.137Z,7.20
2023-03-19T15:41:16.072Z,6.70
2023-03-19T15:45:12.394Z,8.10
2023-03-19T15:50:02.400Z,7.60
2023-03-19T15:58:51.365Z,6.60
2023-03-19T16:08:00.227Z,7.50
2023-03-19T16:24:44.283Z,9.00
2023-03-19T16:32:48.006Z,10.20
2023-03-19T16:36:37.583Z,11.20
2023-03-19T17:32:20.832Z,23.20
2023-03-19T17:35:35.185Z,25.50
2023-03-19T17:59:17.302Z,48.40
2023-03-19T18:06:28.251Z,47.10
2023-03-19T19:23:46.632Z,27.50
2023-03-19T19:27:24.648Z,29.10
2023-03-19T19:52:04.464Z,32.60
2023-03-19T19:56:31.309Z,34.10
2023-03-19T19:59:39.326Z,31.90
2023-03-19T20:08:39.680Z,29.60
2023-03-19T20:23:46.878Z,26.20
2023-03-19T20:27:23.813Z,24.80
2023-03-19T20:45:45.249Z,25.30
2023-03-19T20:48:57.423Z,25.70
2023-03-19T20:52:09.829Z,26.90
2023-03-19T20:55:21.881Z,26.20
2023-03-19T21:03:54.097Z,25.70
2023-03-19T21:07:02.039Z,26.50
2023-03-19T21:10:18.703Z,26.50
2023-03-19T21:20:07.450Z,27.40
2023-03-19T21:24:30.876Z,29.80
2023-03-19T21:27:50.767Z,28.80
2023-03-19T21:31:37.947Z,30.00
2023-03-19T21:40:26.843Z,29.20
2023-03-19T21:43:50.364Z,29.90
2023-03-19T21:47:48.549Z,27.40
2023-03-19T21:51:16.542Z,27.30
2023-03-19T21:55:47.325Z,27.20
2023-03-19T21:59:33.460Z,28.10
2023-03-19T22:05:26.133Z,29.90
2023-03-19T22:08:44.647Z,26.20
2023-03-19T22:11:50.694Z,26.60
2023-03-19T22:14:59.669Z,25.90
2023-03-19T22:18:08.259Z,25.00
2023-03-19T22:21:17.956Z,24.30
2023-03-19T22:24:26.352Z,27.50
2023-03-19T22:27:34.983Z,23.90
2023-03-19T22:30:41.837Z,24.50
2023-03-19T22:33:47.077Z,23.40
2023-03-19T22:36:55.296Z,23.10
2023-03-19T22:40:01.120Z,24.10
2023-03-19T22:43:34.020Z,24.00
2023-03-19T22:46:42.862Z,23.50
2023-03-19T22:49:52.599Z,22.70
2023-03-19T22:53:02.370Z,21.90
2023-03-19T22:56:06.028Z,21.80
2023-03-19T22:59:11.506Z,22.50
2023-03-19T23:02:16.084Z,22.10
2023-03-19T23:05:33.769Z,22.10
2023-03-19T23:08:38.795Z,21.10
2023-03-19T23:11:42.761Z,20.20
2023-03-19T23:14:55.276Z,22.40
2023-03-19T23:18:04.411Z,20.10
2023-03-19T23:21:17.220Z,20.00
2023-03-19T23:24:23.839Z,20.80
2023-03-19T23:27:33.213Z,20.30
2023-03-19T23:30:44.191Z,19.50
2023-03-19T23:33:49.919Z,19.00
2023-03-19T23:36:54.441Z,20.60
2023-03-19T23:40:03.146Z,20.10
2023-03-19T23:43:17.775Z,19.70
2023-03-19T23:46:23.339Z,21.30
2023-03-19T23:49:33.452Z,22.20
2023-03-19T23:52:41.155Z,22.00
2023-03-19T23:55:45.563Z,20.70
2023-03-19T23:58:52.574Z,22.50
